Time;durP1;ratioP1;P1;durP2;ratioP2;P2;SDS_P1;SDS_P2;PMS_P1;PMS_P2;Temp;Humidity;BMP_temperature;BMP_pressure;BME280_temperature;BME280_humidity;BME280_pressure;Samples;Min_cycle;Max_cycle;Signal;HPM_P1;HPM_P2
2022/03/23 00:04:24;;;;;;;26.30;17.37;;;10.70;65.00;;;;;;10906199;32;20430;-70
2022/03/23 00:10:26;;;;;;;27.92;20.55;;;10.70;65.30;;;;;;10905961;32;20022;-70
2022/03/23 00:16:28;;;;;;;30.10;21.92;;;10.80;65.40;;;;;;10905584;32;20203;-70
2022/03/23 00:22:30;;;;;;;30.67;22.23;;;10.90;65.80;;;;;;10905675;32;20336;-70
2022/03/23 00:28:32;;;;;;;22.70;16.42;;;10.80;65.70;;;;;;10905303;32;20042;-70
2022/03/23 00:34:35;;;;;;;32.15;21.92;;;10.70;65.60;;;;;;10905411;32;20315;-70
2022/03/23 00:40:38;;;;;;;21.92;15.93;;;10.60;65.80;;;;;;10905322;32;20024;-70
2022/03/23 00:46:40;;;;;;;24.67;16.55;;;10.60;65.50;;;;;;10905152;32;20019;-71
2022/03/23 00:52:47;;;;;;;20.55;15.75;;;10.40;65.80;;;;;;10905158;32;20046;-71
2022/03/23 00:58:49;;;;;;;20.02;16.87;;;10.50;65.80;;;;;;10911729;32;20073;-71
2022/03/23 01:04:51;;;;;;;20.12;15.75;;;10.50;66.10;;;;;;10912373;32;20054;-70
2022/03/23 01:10:53;;;;;;;28.17;23.95;;;10.50;66.20;;;;;;10898710;32;20024;-70
2022/03/23 01:16:56;;;;;;;23.83;19.92;;;10.50;66.10;;;;;;10912104;32;20073;-70
2022/03/23 01:22:59;;;;;;;38.95;28.75;;;10.50;66.50;;;;;;10912008;32;20338;-70
2022/03/23 01:29:30;;;;;;;25.60;16.42;;;10.50;65.90;;;;;;10911670;32;20441;-70
2022/03/23 01:35:32;;;;;;;26.50;18.95;;;10.40;65.10;;;;;;10911428;32;20327;-70
2022/03/23 01:41:36;;;;;;;21.95;16.10;;;10.30;65.10;;;;;;10911404;32;20042;-70
2022/03/23 01:47:39;;;;;;;19.60;14.43;;;10.20;65.00;;;;;;10911002;32;20054;-70
2022/03/23 01:54:08;;;;;;;20.60;14.82;;;10.20;65.50;;;;;;10910990;32;20024;-70
2022/03/23 02:00:11;;;;;;;21.13;14.27;;;10.10;66.00;;;;;;10906384;32;20046;-70
2022/03/23 02:06:14;;;;;;;27.25;21.10;;;10.00;66.10;;;;;;10905232;32;20023;-70
2022/03/23 02:12:17;;;;;;;18.52;13.60;;;10.00;66.00;;;;;;10906118;32;20027;-70
2022/03/23 02:18:20;;;;;;;20.33;15.55;;;10.00;65.80;;;;;;10909842;32;20057;-70
2022/03/23 02:24:27;;;;;;;19.02;15.98;;;9.80;66.10;;;;;;10909717;32;20023;-70
2022/03/23 02:30:29;;;;;;;19.20;14.82;;;9.60;66.60;;;;;;10909551;32;20046;-70
2022/03/23 02:36:32;;;;;;;21.83;17.87;;;9.30;67.30;;;;;;10909341;32;20058;-70
2022/03/23 02:42:34;;;;;;;19.58;15.05;;;9.50;66.90;;;;;;10909295;32;20024;-70
2022/03/23 02:48:46;;;;;;;22.77;15.80;;;9.60;67.80;;;;;;10908933;32;20104;-70
2022/03/23 03:01:54;;;;;;;18.77;14.15;;;9.70;67.70;;;;;;10904473;32;20481;-70
2022/03/23 03:14:17;;;;;;;30.77;22.05;;;9.50;67.00;;;;;;10908216;32;20034;-70
2022/03/23 03:20:19;;;;;;;16.60;13.10;;;9.40;67.10;;;;;;10907457;32;20069;-70
2022/03/23 03:26:21;;;;;;;17.90;13.07;;;9.30;66.70;;;;;;10907617;32;20340;-70
2022/03/23 03:32:23;;;;;;;23.58;18.37;;;9.20;67.00;;;;;;10907351;32;20035;-70
2022/03/23 03:38:27;;;;;;;19.73;14.38;;;9.20;67.20;;;;;;10907377;32;20351;-70
2022/03/23 03:44:29;;;;;;;16.77;13.43;;;9.10;66.90;;;;;;10893845;32;20051;-70
2022/03/23 03:50:31;;;;;;;29.20;20.75;;;9.00;67.20;;;;;;10906875;32;20058;-70
2022/03/23 03:56:33;;;;;;;27.35;21.20;;;8.80;67.50;;;;;;10906483;32;20031;-70
2022/03/23 04:02:38;;;;;;;21.65;15.65;;;8.90;66.90;;;;;;10906348;32;20022;-70
2022/03/23 04:08:40;;;;;;;20.02;15.52;;;8.90;67.40;;;;;;10906432;32;20069;-70
2022/03/23 04:14:46;;;;;;;18.75;13.15;;;9.00;67.30;;;;;;10902076;32;20320;-70
2022/03/23 04:20:48;;;;;;;19.95;14.75;;;8.90;67.30;;;;;;10905807;32;20062;-70
2022/03/23 04:26:50;;;;;;;25.90;19.40;;;8.70;67.40;;;;;;10905832;32;20081;-70
2022/03/23 04:32:52;;;;;;;25.10;18.92;;;8.70;67.60;;;;;;10905061;32;20034;-70
2022/03/23 04:38:54;;;;;;;19.65;15.02;;;8.70;67.70;;;;;;10905427;32;20030;-70
2022/03/23 04:45:36;;;;;;;16.20;12.90;;;8.70;67.90;;;;;;10905235;32;20038;-70
2022/03/23 04:51:38;;;;;;;20.60;12.80;;;8.50;67.80;;;;;;10718192;33;20032;-70
2022/03/23 04:57:42;;;;;;;17.27;13.05;;;8.20;68.20;;;;;;10716849;33;20409;-70
2022/03/23 05:03:44;;;;;;;15.93;11.43;;;8.20;68.50;;;;;;10716148;33;20382;-69
2022/03/23 05:09:46;;;;;;;14.70;11.48;;;8.20;68.40;;;;;;10716753;33;20303;-69
2022/03/23 05:15:48;;;;;;;26.50;18.37;;;8.10;68.50;;;;;;10716545;33;20025;-69
2022/03/23 05:21:50;;;;;;;21.15;16.92;;;8.20;68.60;;;;;;10715471;33;20052;-68
2022/03/23 05:27:52;;;;;;;18.00;12.85;;;8.10;68.40;;;;;;10851528;32;20053;-69
2022/03/23 05:33:54;;;;;;;16.10;11.43;;;8.20;68.30;;;;;;10903445;32;20015;-69
2022/03/23 05:39:57;;;;;;;19.90;13.68;;;7.90;68.90;;;;;;10899730;32;20387;-69
2022/03/23 05:46:14;;;;;;;16.75;12.80;;;7.90;69.20;;;;;;10910359;32;20027;-69
2022/03/23 05:52:16;;;;;;;16.15;10.45;;;7.90;69.30;;;;;;10896997;32;20066;-70
2022/03/23 05:58:19;;;;;;;23.83;15.30;;;7.80;69.30;;;;;;10893098;32;20023;-70
2022/03/23 06:04:26;;;;;;;16.75;11.73;;;7.90;69.70;;;;;;10910234;32;20057;-70
2022/03/23 06:10:28;;;;;;;15.70;12.75;;;8.30;69.50;;;;;;10909407;32;20046;-69
2022/03/23 06:16:31;;;;;;;18.00;13.18;;;8.60;69.00;;;;;;10909151;32;20208;-69
2022/03/23 06:22:33;;;;;;;16.50;10.30;;;8.80;68.70;;;;;;10895262;32;20042;-69
2022/03/23 06:28:50;;;;;;;18.00;12.07;;;9.20;68.60;;;;;;10908630;32;20434;-69
2022/03/23 06:34:56;;;;;;;13.88;11.45;;;9.20;68.50;;;;;;10895076;32;20062;-69
2022/03/23 06:40:58;;;;;;;19.02;11.43;;;9.20;68.70;;;;;;10894958;32;20035;-69
2022/03/23 06:47:00;;;;;;;13.85;8.57;;;9.40;68.70;;;;;;10908115;32;20020;-69
2022/03/23 06:53:03;;;;;;;14.57;10.98;;;9.50;68.50;;;;;;10903212;32;20045;-69
2022/03/23 06:59:30;;;;;;;16.87;10.95;;;9.70;68.50;;;;;;10907491;32;20347;-69
2022/03/23 07:05:35;;;;;;;13.13;7.55;;;9.80;67.90;;;;;;10907289;32;20046;-69
2022/03/23 07:11:37;;;;;;;9.95;7.25;;;9.80;68.10;;;;;;10889701;32;20450;-69
2022/03/23 07:17:39;;;;;;;21.48;10.88;;;10.10;68.00;;;;;;10904999;27;20073;-70
2022/03/23 07:23:41;;;;;;;10.50;7.25;;;10.50;67.00;;;;;;10900907;32;20063;-68
2022/03/23 07:29:43;;;;;;;10.25;5.87;;;10.70;65.90;;;;;;10904727;32;20358;-69
2022/03/23 07:35:45;;;;;;;13.88;7.85;;;11.00;66.00;;;;;;10868912;32;20419;-69
2022/03/23 07:41:52;;;;;;;13.90;7.15;;;11.20;66.30;;;;;;10868852;32;20400;-69
2022/03/23 07:47:55;;;;;;;11.40;6.47;;;11.40;65.10;;;;;;10880074;32;20034;-69
2022/03/23 07:54:01;;;;;;;9.98;6.03;;;11.40;65.20;;;;;;10902879;32;20066;-69
2022/03/23 08:00:04;;;;;;;9.75;6.30;;;11.70;65.00;;;;;;10903476;32;20446;-69
2022/03/23 08:06:16;;;;;;;10.43;5.35;;;11.70;65.30;;;;;;10901092;32;20384;-69
2022/03/23 08:12:19;;;;;;;6.60;3.95;;;11.90;64.60;;;;;;10905124;32;20027;-69
2022/03/23 08:18:21;;;;;;;9.02;5.80;;;12.00;64.70;;;;;;10904774;32;20035;-69
2022/03/23 08:24:23;;;;;;;12.90;6.30;;;12.10;64.30;;;;;;10904747;32;20038;-69
2022/03/23 08:30:45;;;;;;;10.05;4.97;;;12.20;63.00;;;;;;10904296;32;20019;-69
2022/03/23 08:36:47;;;;;;;11.00;7.10;;;12.50;62.80;;;;;;10904390;32;20031;-69
2022/03/23 08:42:50;;;;;;;8.32;3.87;;;12.70;63.10;;;;;;10904304;32;20343;-69
2022/03/23 08:48:59;;;;;;;11.77;5.55;;;12.70;62.30;;;;;;10903715;32;20051;-69
2022/03/23 08:55:04;;;;;;;8.55;4.03;;;12.80;61.40;;;;;;10904076;32;20031;-69
2022/03/23 09:01:06;;;;;;;11.20;5.22;;;12.80;61.60;;;;;;10899768;32;20020;-69
2022/03/23 09:07:08;;;;;;;6.90;3.97;;;12.90;61.10;;;;;;10903828;32;20015;-69
2022/03/23 09:13:10;;;;;;;11.25;7.00;;;13.00;61.60;;;;;;10901748;32;20037;-69
2022/03/23 09:19:14;;;;;;;7.10;4.45;;;13.20;61.70;;;;;;10893794;32;20042;-68
2022/03/23 09:25:18;;;;;;;7.80;4.45;;;13.30;61.00;;;;;;10906612;32;20019;-69
2022/03/23 09:31:37;;;;;;;7.35;4.32;;;13.50;59.60;;;;;;10908148;32;20085;-69
2022/03/23 09:37:48;;;;;;;6.68;4.15;;;13.60;58.50;;;;;;10910604;32;20016;-70
2022/03/23 09:43:55;;;;;;;5.55;3.50;;;13.70;59.10;;;;;;10905681;32;20062;-70
2022/03/23 09:49:58;;;;;;;15.80;6.95;;;13.80;58.20;;;;;;10893878;32;20015;-71
2022/03/23 09:56:01;;;;;;;5.70;3.15;;;14.00;58.60;;;;;;10911134;32;20050;-71
2022/03/23 10:02:39;;;;;;;6.93;4.18;;;14.20;57.00;;;;;;10910837;32;20019;-71
2022/03/23 10:09:18;;;;;;;7.35;4.75;;;14.30;56.10;;;;;;10910791;32;20019;-71
2022/03/23 10:15:55;;;;;;;13.40;5.20;;;14.50;55.90;;;;;;10834665;32;20328;-71
2022/03/23 10:22:08;;;;;;;14.90;6.28;;;14.70;55.10;;;;;;10909647;32;20332;-71
2022/03/23 10:28:14;;;;;;;25.80;7.85;;;14.90;52.20;;;;;;10891179;32;20046;-71
2022/03/23 10:34:45;;;;;;;15.60;7.18;;;15.10;52.50;;;;;;10908789;32;20027;-71
2022/03/23 10:41:11;;;;;;;34.03;7.03;;;15.40;52.30;;;;;;10909012;32;20024;-70
2022/03/23 10:47:28;;;;;;;9.80;4.57;;;15.60;52.90;;;;;;10909277;32;20050;-70
2022/03/23 10:53:44;;;;;;;7.40;5.37;;;15.80;51.30;;;;;;10909150;32;20019;-70
2022/03/23 10:59:46;;;;;;;13.20;7.53;;;16.10;50.60;;;;;;10904844;32;20035;-70
2022/03/23 11:05:48;;;;;;;7.60;4.80;;;16.30;49.80;;;;;;10908764;32;20040;-70
2022/03/23 11:18:20;;;;;;;9.30;6.25;;;16.90;47.60;;;;;;10906004;32;20046;-70
2022/03/23 11:24:23;;;;;;;10.55;6.35;;;17.20;47.10;;;;;;10907789;32;20020;-70
2022/03/23 11:30:25;;;;;;;7.50;4.70;;;17.60;47.10;;;;;;10907977;32;20038;-70
2022/03/23 11:36:29;;;;;;;7.68;5.03;;;18.00;47.00;;;;;;10894017;32;20026;-70
2022/03/23 11:42:32;;;;;;;7.87;5.40;;;18.30;46.60;;;;;;10893918;32;20073;-70
2022/03/23 11:48:58;;;;;;;6.62;4.75;;;18.70;44.50;;;;;;10906883;32;20027;-70
2022/03/23 12:01:37;;;;;;;10.05;2.87;;;19.20;44.00;;;;;;10906674;32;20049;-70
2022/03/23 12:07:47;;;;;;;8.10;4.75;;;19.40;43.80;;;;;;10906153;32;20062;-70
2022/03/23 12:13:59;;;;;;;8.07;4.37;;;19.50;43.50;;;;;;10900312;32;20035;-70
2022/03/23 12:20:08;;;;;;;8.40;5.97;;;19.70;43.60;;;;;;10888216;32;20050;-70
2022/03/23 12:26:24;;;;;;;8.80;5.15;;;19.70;42.10;;;;;;10868705;32;20032;-70
2022/03/23 12:32:39;;;;;;;6.95;4.80;;;19.70;42.00;;;;;;10866162;32;20049;-69
2022/03/23 12:38:42;;;;;;;8.18;3.60;;;19.70;42.10;;;;;;10867011;32;20050;-69
2022/03/23 12:44:49;;;;;;;10.05;5.55;;;19.70;42.10;;;;;;10896035;32;20053;-69
2022/03/23 13:03:46;;;;;;;7.50;4.87;;;20.00;37.90;;;;;;10903979;32;20058;-70
2022/03/23 13:09:49;;;;;;;8.07;4.82;;;20.00;37.10;;;;;;10903290;32;20027;-70
2022/03/23 13:15:56;;;;;;;9.35;6.15;;;20.00;36.40;;;;;;10903742;32;20509;-70
2022/03/23 13:21:58;;;;;;;11.17;6.70;;;20.20;37.10;;;;;;10903083;32;20011;-70
2022/03/23 13:28:00;;;;;;;6.50;4.43;;;20.30;36.50;;;;;;10905070;32;20339;-70
2022/03/23 13:34:04;;;;;;;6.57;4.53;;;20.20;36.90;;;;;;10904898;32;20031;-70
2022/03/23 13:40:10;;;;;;;8.02;5.72;;;20.30;35.80;;;;;;10891590;32;20027;-70
2022/03/23 13:46:13;;;;;;;7.57;5.50;;;20.30;35.60;;;;;;10904669;32;20054;-70
2022/03/23 13:52:15;;;;;;;10.45;6.68;;;20.40;35.30;;;;;;10904785;32;20069;-70
2022/03/23 13:58:18;;;;;;;7.93;5.87;;;20.40;34.10;;;;;;10904575;32;20077;-70
2022/03/23 14:04:20;;;;;;;10.98;7.20;;;20.70;34.80;;;;;;10908787;32;20045;-70
2022/03/23 14:10:37;;;;;;;10.60;7.10;;;20.80;34.20;;;;;;10897600;32;20027;-70
2022/03/23 14:16:39;;;;;;;8.32;5.35;;;20.90;33.60;;;;;;10910330;32;20023;-70
2022/03/23 14:22:41;;;;;;;11.38;5.53;;;20.90;32.60;;;;;;10910676;32;20081;-70
2022/03/23 14:28:47;;;;;;;13.05;8.48;;;21.10;33.60;;;;;;10909639;32;20073;-70
2022/03/23 14:35:44;;;;;;;8.30;5.70;;;21.30;32.70;;;;;;10896010;32;20054;-70
2022/03/23 14:41:57;;;;;;;8.52;5.15;;;21.40;31.10;;;;;;10718557;33;20037;-70
2022/03/23 14:48:25;;;;;;;12.27;8.00;;;21.50;31.40;;;;;;10722298;33;20032;-70
2022/03/23 14:54:33;;;;;;;10.00;6.43;;;21.80;32.20;;;;;;10685705;33;20064;-70
2022/03/23 15:00:37;;;;;;;8.73;5.60;;;21.80;32.20;;;;;;10683093;33;20037;-70
2022/03/23 15:13:16;;;;;;;9.95;6.28;;;22.20;32.40;;;;;;10731252;32;20036;-70
2022/03/23 15:19:18;;;;;;;9.37;5.67;;;22.40;33.00;;;;;;10390106;27;13379630;-70
2022/03/23 15:25:20;;;;;;;9.73;6.57;;;22.70;32.50;;;;;;10757333;33;20024;-70
2022/03/23 15:31:25;;;;;;;7.70;5.75;;;23.00;32.30;;;;;;10845258;32;20054;-70
2022/03/23 15:37:27;;;;;;;6.18;4.12;;;23.30;32.00;;;;;;10867245;32;20047;-70
2022/03/23 15:43:30;;;;;;;6.55;4.55;;;23.80;31.60;;;;;;10888398;32;20331;-70
2022/03/23 15:49:33;;;;;;;9.20;5.95;;;24.50;30.90;;;;;;10945272;32;20046;-70
2022/03/23 15:55:35;;;;;;;18.52;7.95;;;24.90;31.40;;;;;;10945002;32;20046;-70
2022/03/23 16:01:37;;;;;;;6.72;4.28;;;25.40;30.70;;;;;;10944604;32;20331;-70
2022/03/23 16:07:40;;;;;;;9.25;3.65;;;25.80;29.60;;;;;;10944357;32;20049;-70
2022/03/23 16:13:43;;;;;;;7.35;3.83;;;26.40;29.50;;;;;;10944121;32;20081;-70
2022/03/23 16:19:46;;;;;;;4.53;3.33;;;26.80;29.30;;;;;;10943687;32;20305;-70
2022/03/23 16:25:48;;;;;;;6.32;4.28;;;27.00;29.30;;;;;;10942774;32;20018;-70
2022/03/23 16:31:50;;;;;;;6.43;3.35;;;27.30;29.00;;;;;;10943379;32;20054;-70
2022/03/23 16:37:55;;;;;;;10.23;4.32;;;27.60;29.20;;;;;;10943320;32;20062;-70
2022/03/23 16:43:57;;;;;;;6.22;3.30;;;27.30;29.60;;;;;;10928709;32;20049;-70
2022/03/23 16:49:59;;;;;;;5.55;3.28;;;26.30;30.80;;;;;;10941806;32;20034;-69
2022/03/23 16:56:03;;;;;;;6.00;3.60;;;25.30;32.30;;;;;;10927478;32;20403;-69
2022/03/23 17:02:05;;;;;;;9.68;3.58;;;24.70;33.10;;;;;;10928131;32;20035;-70
2022/03/23 17:14:29;;;;;;;5.43;3.40;;;23.30;34.70;;;;;;10941237;32;20379;-69
2022/03/23 17:20:32;;;;;;;6.10;3.83;;;22.30;36.10;;;;;;10941192;32;20335;-70
2022/03/23 17:26:37;;;;;;;5.15;3.42;;;21.30;37.60;;;;;;10941136;32;20045;-70
2022/03/23 17:32:47;;;;;;;8.15;4.82;;;20.80;39.10;;;;;;10940908;32;20062;-69
2022/03/23 17:38:49;;;;;;;7.70;3.42;;;20.30;40.40;;;;;;10944805;32;20030;-69
2022/03/23 17:44:52;;;;;;;6.18;3.45;;;19.90;41.20;;;;;;10946251;32;20058;-70
2022/03/23 17:50:53;;;;;;;10.02;5.20;;;19.50;41.80;;;;;;10947872;32;20383;-69
2022/03/23 17:57:07;;;;;;;7.45;4.07;;;19.20;43.00;;;;;;10934057;32;20031;-70
2022/03/23 18:03:09;;;;;;;8.98;6.22;;;18.90;43.70;;;;;;10947345;32;20011;-69
2022/03/23 18:09:12;;;;;;;8.55;5.37;;;18.70;44.70;;;;;;10946350;32;20062;-69
2022/03/23 18:15:15;;;;;;;10.20;5.80;;;18.50;45.20;;;;;;10946651;32;20331;-69
2022/03/23 18:21:26;;;;;;;10.05;5.78;;;18.30;45.90;;;;;;10943125;32;20050;-70
2022/03/23 18:27:28;;;;;;;11.38;8.45;;;18.20;46.60;;;;;;10946182;32;20035;-69
2022/03/23 18:33:35;;;;;;;10.90;7.50;;;18.00;47.10;;;;;;10944832;32;20058;-69
2022/03/23 18:39:37;;;;;;;15.27;9.00;;;17.90;47.80;;;;;;10946257;32;20399;-70
2022/03/23 18:45:40;;;;;;;11.00;9.07;;;17.80;48.50;;;;;;10932521;32;20058;-69
2022/03/23 18:51:42;;;;;;;12.63;9.35;;;17.60;49.00;;;;;;10944891;32;20050;-70
2022/03/23 18:57:44;;;;;;;11.68;8.70;;;17.30;49.70;;;;;;10945626;32;20061;-69
2022/03/23 19:03:46;;;;;;;12.82;10.02;;;17.20;50.30;;;;;;10941189;32;20031;-70
2022/03/23 19:09:51;;;;;;;17.65;10.52;;;17.20;50.80;;;;;;10944992;32;20023;-69
2022/03/23 19:16:22;;;;;;;15.55;10.85;;;17.00;51.20;;;;;;10931387;32;20037;-69
2022/03/23 19:22:45;;;;;;;12.73;9.95;;;16.90;51.60;;;;;;10944544;32;20050;-69
2022/03/23 19:28:47;;;;;;;17.80;9.27;;;16.70;52.20;;;;;;10944365;32;20400;-69
2022/03/23 19:34:49;;;;;;;13.48;9.98;;;16.60;52.50;;;;;;10939931;32;20035;-69
2022/03/23 19:40:53;;;;;;;14.18;10.88;;;16.40;52.50;;;;;;10943918;32;20053;-69
2022/03/23 19:46:55;;;;;;;13.85;9.55;;;16.20;52.90;;;;;;10943697;32;20027;-70
2022/03/23 19:52:57;;;;;;;14.52;12.07;;;16.20;53.30;;;;;;10943483;32;20023;-69
2022/03/23 19:58:59;;;;;;;17.65;12.75;;;16.20;53.70;;;;;;10929544;32;20347;-69
2022/03/23 20:05:01;;;;;;;18.48;12.63;;;16.10;54.00;;;;;;10943212;32;20041;-69
2022/03/23 20:11:06;;;;;;;16.35;12.90;;;16.00;54.10;;;;;;10942903;32;20031;-69
2022/03/23 20:17:09;;;;;;;25.52;12.82;;;15.90;54.50;;;;;;10942534;32;20054;-69
2022/03/23 20:23:11;;;;;;;17.02;12.52;;;15.90;54.90;;;;;;10942618;32;20035;-69
2022/03/23 20:29:21;;;;;;;19.02;12.90;;;15.80;55.20;;;;;;10924716;32;20027;-69
2022/03/23 20:35:23;;;;;;;17.48;14.13;;;15.80;55.60;;;;;;10942235;32;20117;-69
2022/03/23 20:41:25;;;;;;;16.10;13.43;;;15.70;55.80;;;;;;10942017;32;20441;-69
2022/03/23 20:47:29;;;;;;;15.95;13.50;;;15.60;56.10;;;;;;10942040;32;20023;-69
2022/03/23 20:53:35;;;;;;;15.80;11.90;;;15.40;56.50;;;;;;10942237;32;20023;-69
2022/03/23 20:59:40;;;;;;;21.33;14.83;;;15.30;56.80;;;;;;10943038;32;20429;-70
2022/03/23 21:05:46;;;;;;;19.92;15.98;;;15.20;57.10;;;;;;10938665;32;20076;-70
2022/03/23 21:11:48;;;;;;;17.50;12.98;;;15.10;57.50;;;;;;10944653;32;20023;-70
2022/03/23 21:18:15;;;;;;;20.23;15.07;;;15.00;57.60;;;;;;10946253;32;20023;-70
2022/03/23 21:24:19;;;;;;;19.85;15.68;;;15.00;57.80;;;;;;10950399;32;20015;-70
2022/03/23 21:30:35;;;;;;;20.48;14.38;;;15.00;58.00;;;;;;10946477;32;20026;-70
2022/03/23 21:36:37;;;;;;;16.73;14.23;;;15.00;58.20;;;;;;10950040;32;20433;-70
2022/03/23 21:42:55;;;;;;;23.23;16.30;;;14.80;58.50;;;;;;10949723;32;20049;-70
2022/03/23 21:48:58;;;;;;;18.50;14.18;;;14.70;58.70;;;;;;10920430;32;20062;-70
2022/03/23 21:55:01;;;;;;;22.77;15.88;;;14.50;59.10;;;;;;10910900;32;20034;-70
2022/03/23 22:01:04;;;;;;;21.25;18.20;;;14.30;59.50;;;;;;10911607;32;20015;-70
2022/03/23 22:07:06;;;;;;;21.35;16.27;;;14.40;59.50;;;;;;10911104;32;20050;-70
2022/03/23 22:13:08;;;;;;;19.23;15.20;;;14.30;59.50;;;;;;10906033;32;20327;-70
2022/03/23 22:19:10;;;;;;;21.33;14.38;;;14.10;59.70;;;;;;10910752;32;20049;-70
2022/03/23 22:25:13;;;;;;;20.15;15.48;;;13.80;60.40;;;;;;10910696;32;20081;-70
2022/03/23 22:31:17;;;;;;;23.58;18.90;;;13.90;60.30;;;;;;10910460;32;20066;-70
2022/03/23 22:37:19;;;;;;;25.37;16.75;;;13.80;60.50;;;;;;10906189;32;20046;-70
2022/03/23 22:43:22;;;;;;;21.65;14.93;;;13.70;60.80;;;;;;10910069;32;20029;-70
2022/03/23 22:49:24;;;;;;;20.67;14.80;;;13.70;60.70;;;;;;10909782;32;20020;-70
2022/03/23 22:55:26;;;;;;;22.58;18.62;;;13.70;61.00;;;;;;10909748;32;20301;-70
2022/03/23 23:01:29;;;;;;;21.45;16.60;;;13.70;60.90;;;;;;10909401;32;20023;-70
2022/03/23 23:07:31;;;;;;;22.08;15.65;;;13.80;61.00;;;;;;10909300;32;20046;-70
2022/03/23 23:13:34;;;;;;;21.02;16.75;;;13.60;61.00;;;;;;10909084;32;20344;-70
2022/03/23 23:19:37;;;;;;;21.50;15.55;;;13.50;61.20;;;;;;10890730;27;20050;-69
2022/03/23 23:25:39;;;;;;;19.58;16.37;;;13.60;61.40;;;;;;10882859;32;20028;-69
2022/03/23 23:31:41;;;;;;;24.70;17.27;;;13.60;61.30;;;;;;10871107;32;20024;-69
2022/03/23 23:37:44;;;;;;;23.77;18.02;;;13.50;61.50;;;;;;10870383;32;20067;-69
2022/03/23 23:43:47;;;;;;;30.27;25.70;;;13.40;61.90;;;;;;10866611;32;20026;-69
2022/03/23 23:49:50;;;;;;;23.62;18.98;;;13.30;62.10;;;;;;10870364;32;20023;-69
2022/03/23 23:55:52;;;;;;;22.48;17.73;;;13.10;62.30;;;;;;10870297;32;20020;-69
